Elk Point, South Dakota
Current Conditions -  °F | °C
As of 2:52 PM on Wednesday 26 Nov 2014 (Local Time) from KSUX Reporting Station
Overcast Overcast  
Wind Chill: 13°   Ceiling: 1800
Heat Index: 27°   Visibility: 10mi
Dew Point: 19°   Wind: 22mph
Humidity: 72%   Direction: 320°NW
Pressure: 30.26"   Gusts: NA
Location:  42.68°N, 96.68°W
Report Text: KSUX 262052Z 32019KT 10SM OVC018 M03/M07 A3026 RMK AO2 PK WND 33027/2048 SLP260 T10281072 53032
Loading
Personal Weather Stations






























Interactive Weather Map New forecast layout! Learn more

10-Day Weather Forecast

Advertisements
Track Severe Weather on mobile